Accueil
METAR-TAF:

METAR-TAF

Aéroports :

Aéroport de Krabi

Krabi, Thaïlande

latitude: 08-06-03N, longitude: 098-59-05E, altitude: 25 m

Observation

Le bulletin a été fait il y a 46 minutes, à 19:00 UTC
Vent calme
Température 25°C
Humidité 94%
Pression 1010 hPa
Visibilité 10 km ou plus
Nuages épars à une hauteur de 2000 ft

METAR: VTSG 021900Z 00000KT 9999 SCT020 25/24 Q1010 NOSIG

Heure: 02:46 (19:46 UTC)

Prévision

Le bulletin a été fait il y a 2 heures et 46 minutes, à 17:00 UTC
Prévision valable du 02 à 18 UTC au 03 à 18 UTC
Vent kt de nord
Visibilité 10 km ou plus
Nuages épars à une hauteur de 2000 ft
Evoluant progressivement
du 03 à 00 UTC au 03 à 02 UTC
Vent 6 kt de nord-est
Evoluant progressivement
du 03 à 04 UTC au 03 à 06 UTC
Vent 8 kt de sud-ouest

TAF: VTSG 021700Z 0218/0318 00000KT 9999 SCT020 BECMG 0300/0302 04006KT BECMG 0304/0306 22008KT

Observations et prévisions météorologiques de plus de 4000 aéroports (messages METAR et TAF).

Les stations disponibles sont représentées par des disques jaunes et rouges sur la carte.

Passer la souris dessus pour voir le nom de la station.

Cliquer dessus pour voir les observations et prévisions météorologiques.

Pour changer de carte: cliquez sur les boutons verts avec une croix noire pour zoomer, sur le bouton vert avec un tiret pour effectuer un zoom arrière, ou sur les flèches vertes pour les cartes adjacentes.


METAR-TAF: